Time;durP1;ratioP1;P1;durP2;ratioP2;P2;SDS_P1;SDS_P2;PMS_P1;PMS_P2;Temp;Humidity;BMP_temperature;BMP_pressure;BME280_temperature;BME280_humidity;BME280_pressure;Samples;Min_cycle;Max_cycle;Signal;HPM_P1;HPM_P2
2021/06/29 00:01:25;;;;;;;9.73;8.38;;;;;;;19.51;59.24;100467.98;1794363;78;21014;-70
2021/06/29 00:03:51;;;;;;;9.13;7.50;;;;;;;19.52;59.21;100466.94;1792209;78;21277;-70
2021/06/29 00:06:18;;;;;;;11.75;7.45;;;;;;;19.50;59.15;100464.13;1794503;78;21476;-70
2021/06/29 00:08:44;;;;;;;12.55;7.45;;;;;;;19.46;59.14;100458.34;1821634;78;21452;-70
2021/06/29 00:11:10;;;;;;;8.08;7.28;;;;;;;19.41;59.12;100457.70;1823162;78;21047;-70
2021/06/29 00:13:36;;;;;;;8.48;6.95;;;;;;;19.37;59.14;100456.45;1824026;78;20955;-70
2021/06/29 00:16:02;;;;;;;11.80;7.62;;;;;;;19.34;59.16;100451.50;1819899;78;21122;-70
2021/06/29 00:46:52;;;;;;;9.63;8.58;;;;;;;18.89;59.50;100419.04;1893201;74;22713;-70
2021/06/29 00:49:18;;;;;;;10.72;8.85;;;;;;;18.81;59.58;100422.02;1794733;80;21534;-70
2021/06/29 00:51:44;;;;;;;10.93;8.33;;;;;;;18.78;59.67;100417.06;1802846;79;21806;-70
2021/06/29 00:54:11;;;;;;;11.18;7.45;;;;;;;18.77;59.71;100415.41;1814023;79;20993;-70
2021/06/29 00:56:37;;;;;;;9.70;7.78;;;;;;;18.74;59.79;100422.09;1759763;79;21058;-70
2021/06/29 00:59:04;;;;;;;12.60;7.97;;;;;;;18.72;59.85;100413.36;1792934;80;21067;-70
2021/06/29 01:01:30;;;;;;;9.80;7.78;;;;;;;18.72;59.93;100410.66;1825775;78;21475;-70
2021/06/29 01:03:56;;;;;;;9.55;8.33;;;;;;;18.72;59.99;100409.83;1792675;80;21752;-70
2021/06/29 01:06:22;;;;;;;8.88;7.97;;;;;;;18.69;60.04;100410.28;1826180;78;21037;-70
2021/06/29 01:08:48;;;;;;;11.38;8.13;;;;;;;18.64;60.10;100399.33;1827266;78;20971;-70
2021/06/29 01:11:14;;;;;;;10.32;8.68;;;;;;;18.61;60.17;100399.78;1827458;78;21004;-70
2021/06/29 01:13:43;;;;;;;12.78;8.95;;;;;;;18.58;60.24;100400.23;1825833;78;21038;-70
2021/06/29 01:16:09;;;;;;;9.98;8.05;;;;;;;18.57;60.33;100393.16;1825387;78;21239;-70
2021/06/29 01:18:36;;;;;;;9.78;7.40;;;;;;;18.55;60.41;100389.31;1795840;78;21457;-70
2021/06/29 01:21:03;;;;;;;10.00;8.40;;;;;;;18.55;60.50;100387.14;1825552;78;21042;-70
2021/06/29 01:23:29;;;;;;;16.02;7.90;;;;;;;18.56;60.59;100388.80;1826972;78;21007;-70
2021/06/29 01:29:05;;;;;;;9.33;7.80;;;;;;;18.55;60.73;100381.22;1825805;78;21605;-70
2021/06/29 01:31:32;;;;;;;9.95;8.35;;;;;;;18.55;60.78;100381.73;1826205;78;20992;-70
2021/06/29 01:33:58;;;;;;;11.68;7.97;;;;;;;18.54;60.83;100378.75;1827234;78;21491;-69
2021/06/29 01:36:36;;;;;;;11.60;8.70;;;;;;;18.53;60.85;100374.39;1828004;78;21500;-70
2021/06/29 01:39:08;;;;;;;10.35;8.78;;;;;;;18.52;60.86;100376.78;1826187;78;21054;-70
2021/06/29 01:41:34;;;;;;;9.20;8.23;;;;;;;18.47;60.88;100372.83;1822104;78;21106;-70
2021/06/29 01:44:10;;;;;;;8.98;8.08;;;;;;;18.45;60.93;100374.11;1794316;80;21078;-70
2021/06/29 01:46:37;;;;;;;10.00;8.53;;;;;;;18.43;60.96;100379.75;1775637;80;21038;-70
2021/06/29 01:49:02;;;;;;;11.30;8.10;;;;;;;18.42;60.97;100374.56;1769684;80;21506;-70
2021/06/29 01:51:28;;;;;;;9.53;7.83;;;;;;;18.39;60.98;100377.19;1770284;81;21538;-70
2021/06/29 01:53:54;;;;;;;10.15;8.48;;;;;;;18.36;61.01;100385.73;1770159;81;21676;-70
2021/06/29 01:56:27;;;;;;;11.35;8.15;;;;;;;18.34;61.05;100382.41;1770232;81;21482;-70
2021/06/29 01:58:53;;;;;;;9.45;7.75;;;;;;;18.31;61.09;100378.81;1706610;83;21132;-70
2021/06/29 02:01:19;;;;;;;8.78;7.80;;;;;;;18.30;61.11;100378.50;1758025;81;20998;-70
2021/06/29 02:03:45;;;;;;;12.18;8.10;;;;;;;18.29;61.13;100379.56;1769765;80;21004;-70
2021/06/29 02:06:11;;;;;;;10.98;8.75;;;;;;;18.31;61.16;100378.81;1769644;81;21555;-70
2021/06/29 02:08:37;;;;;;;9.23;8.33;;;;;;;18.31;61.14;100380.16;1770499;81;20985;-70
2021/06/29 02:11:03;;;;;;;8.18;7.33;;;;;;;18.30;61.14;100382.55;1770244;81;21064;-70
2021/06/29 02:13:29;;;;;;;9.93;7.90;;;;;;;18.27;61.15;100376.23;1771241;81;21005;-70
2021/06/29 02:15:56;;;;;;;14.40;8.48;;;;;;;18.26;61.15;100369.73;1770443;81;21026;-70
2021/06/29 02:18:23;;;;;;;10.30;8.25;;;;;;;18.22;61.17;100365.81;1769576;81;21147;-70
2021/06/29 02:20:49;;;;;;;13.70;11.45;;;;;;;18.15;61.19;100365.87;1769552;80;21038;-70
2021/06/29 02:23:16;;;;;;;15.95;9.08;;;;;;;18.08;61.23;100370.50;1745864;81;21025;-70
2021/06/29 02:25:42;;;;;;;9.68;8.10;;;;;;;18.03;61.32;100367.61;1771240;81;21096;-70
2021/06/29 02:28:08;;;;;;;10.90;7.05;;;;;;;17.99;61.41;100363.69;1770473;81;21544;-70
2021/06/29 02:30:34;;;;;;;9.40;7.62;;;;;;;17.97;61.46;100363.09;1769828;81;21763;-70
2021/06/29 02:33:00;;;;;;;9.80;7.30;;;;;;;18.00;61.57;100358.61;1769751;81;21038;-70
2021/06/29 02:35:27;;;;;;;8.90;7.70;;;;;;;18.00;61.64;100364.01;1770628;81;21106;-70
2021/06/29 02:37:53;;;;;;;8.65;7.72;;;;;;;18.02;61.69;100361.91;1770906;81;21088;-70
2021/06/29 02:40:19;;;;;;;11.20;7.85;;;;;;;18.03;61.75;100366.78;1769319;81;21009;-70
2021/06/29 02:42:45;;;;;;;12.85;8.35;;;;;;;18.03;61.78;100367.61;1769413;79;21149;-70
2021/06/29 02:45:17;;;;;;;9.55;8.33;;;;;;;18.03;61.81;100371.66;1769549;80;21053;-70
2021/06/29 02:47:39;;;;;;;11.80;7.92;;;;;;;18.03;61.82;100373.53;1768692;81;21435;-70
2021/06/29 02:50:07;;;;;;;8.75;7.87;;;;;;;18.02;61.83;100374.56;1769332;81;21116;-70
2021/06/29 02:52:33;;;;;;;13.32;8.08;;;;;;;18.01;61.85;100374.28;1770078;81;21119;-70
2021/06/29 02:55:00;;;;;;;11.08;7.95;;;;;;;18.01;61.85;100375.63;1771090;81;21024;-70
2021/06/29 02:57:26;;;;;;;9.13;7.95;;;;;;;18.03;61.86;100377.06;1770002;81;21096;-70
2021/06/29 02:59:53;;;;;;;14.40;8.48;;;;;;;18.03;61.83;100373.02;1769056;81;21033;-70
2021/06/29 03:02:19;;;;;;;11.83;8.60;;;;;;;18.05;61.81;100375.50;1763878;81;21002;-70
2021/06/29 03:04:45;;;;;;;9.58;8.35;;;;;;;18.04;61.81;100367.92;1770511;81;21491;-70
2021/06/29 03:07:12;;;;;;;9.18;8.15;;;;;;;18.02;61.82;100365.95;1770388;81;21273;-70
2021/06/29 03:09:38;;;;;;;10.20;8.45;;;;;;;18.02;61.86;100375.39;1770260;81;21042;-70
2021/06/29 03:12:05;;;;;;;8.60;7.70;;;;;;;18.02;61.87;100374.05;1769447;81;21009;-70
2021/06/29 03:14:35;;;;;;;12.30;7.92;;;;;;;18.06;61.88;100386.06;1769349;81;21332;-70
2021/06/29 03:16:59;;;;;;;12.33;7.85;;;;;;;18.11;61.85;100383.55;1769271;81;21061;-70
2021/06/29 03:19:25;;;;;;;8.33;7.47;;;;;;;18.18;61.80;100384.33;1770671;81;21162;-70
2021/06/29 03:21:51;;;;;;;14.65;8.48;;;;;;;18.25;61.75;100378.87;1770411;81;21099;-70
2021/06/29 03:24:17;;;;;;;11.40;7.22;;;;;;;18.32;61.72;100382.34;1770977;81;20986;-70
2021/06/29 03:26:43;;;;;;;7.80;6.80;;;;;;;18.37;61.66;100383.31;1770460;81;21112;-70
2021/06/29 03:29:09;;;;;;;9.15;7.10;;;;;;;18.50;61.66;100373.45;1770408;81;21538;-70
2021/06/29 03:31:35;;;;;;;8.20;6.75;;;;;;;19.12;61.96;100375.94;1769583;81;21095;-71
2021/06/29 03:34:01;;;;;;;12.73;7.08;;;;;;;20.42;61.78;100380.56;1783904;79;21036;-71
2021/06/29 03:36:29;;;;;;;11.45;7.05;;;;;;;21.71;60.97;100377.12;1770685;81;21084;-71
2021/06/29 03:38:55;;;;;;;7.53;6.30;;;;;;;22.59;60.03;100366.95;1770251;81;21064;-71
2021/06/29 03:41:21;;;;;;;7.65;6.50;;;;;;;23.31;59.23;100368.50;1769230;81;21474;-71
2021/06/29 03:43:47;;;;;;;8.93;6.35;;;;;;;23.95;58.40;100374.11;1769126;81;22579;-71
2021/06/29 03:46:13;;;;;;;7.83;6.58;;;;;;;24.62;57.49;100379.87;1763365;80;20923;-71
2021/06/29 03:48:39;;;;;;;11.95;6.10;;;;;;;25.21;56.45;100377.77;1759563;81;20995;-71
2021/06/29 03:51:05;;;;;;;7.67;5.62;;;;;;;25.76;55.42;100377.14;1758897;81;20975;-71
2021/06/29 03:53:31;;;;;;;5.70;5.20;;;;;;;26.23;54.24;100382.44;1734112;82;21034;-71
2021/06/29 03:55:57;;;;;;;7.37;5.75;;;;;;;26.68;53.07;100378.01;1763415;81;21775;-71
2021/06/29 03:58:23;;;;;;;8.35;5.25;;;;;;;26.94;52.13;100376.90;1756468;81;20915;-71
2021/06/29 04:00:49;;;;;;;7.15;5.05;;;;;;;27.41;51.19;100376.42;1759910;81;20982;-71
2021/06/29 04:03:15;;;;;;;5.62;4.75;;;;;;;27.57;50.10;100381.32;1746854;81;21009;-72
2021/06/29 04:05:41;;;;;;;7.35;5.12;;;;;;;27.85;49.35;100384.72;1715076;81;21488;-71
2021/06/29 04:08:07;;;;;;;5.37;4.75;;;;;;;28.04;48.29;100369.20;1714707;83;21979;-71
2021/06/29 04:10:34;;;;;;;4.95;4.45;;;;;;;28.39;47.70;100374.19;1714605;83;21012;-71
2021/06/29 04:13:00;;;;;;;7.12;5.42;;;;;;;28.52;46.73;100359.78;1717814;81;21616;-71
2021/06/29 04:15:26;;;;;;;5.80;4.92;;;;;;;28.94;46.11;100359.92;1715073;81;21402;-72
2021/06/29 04:17:52;;;;;;;7.30;4.92;;;;;;;29.64;45.14;100353.27;1757162;81;20986;-71
2021/06/29 04:20:18;;;;;;;5.22;4.40;;;;;;;29.80;44.04;100349.19;1734513;81;21760;-71
2021/06/29 04:22:44;;;;;;;8.60;5.12;;;;;;;30.03;43.48;100357.10;1714957;81;21032;-71
2021/06/29 04:25:12;;;;;;;7.30;4.70;;;;;;;30.16;42.73;100351.64;1731306;81;21037;-72
2021/06/29 04:27:38;;;;;;;5.03;4.53;;;;;;;30.28;41.81;100359.99;1753100;81;21002;-72
2021/06/29 04:30:07;;;;;;;6.55;4.90;;;;;;;30.35;41.03;100351.61;1752746;81;21018;-72
2021/06/29 04:32:33;;;;;;;9.03;5.42;;;;;;;29.82;40.40;100351.08;1754279;81;21689;-72
2021/06/29 04:34:59;;;;;;;5.37;4.58;;;;;;;28.99;40.77;100344.73;1722759;81;21490;-72
2021/06/29 04:37:25;;;;;;;5.53;4.60;;;;;;;28.62;41.12;100344.59;1715039;81;20886;-72
2021/06/29 04:39:51;;;;;;;7.70;5.17;;;;;;;28.48;41.42;100334.03;1748982;81;20994;-72
2021/06/29 04:42:17;;;;;;;4.95;4.33;;;;;;;28.75;41.54;100332.39;1745208;81;21056;-72
2021/06/29 04:44:43;;;;;;;8.73;4.97;;;;;;;28.86;41.42;100327.60;1714513;83;21950;-72
2021/06/29 04:47:09;;;;;;;5.12;4.40;;;;;;;28.73;41.34;100327.76;1764172;80;20993;-72
2021/06/29 04:49:37;;;;;;;6.75;4.78;;;;;;;28.78;41.30;100324.94;1793514;80;21001;-72
2021/06/29 04:52:04;;;;;;;6.60;4.05;;;;;;;28.86;41.27;100326.23;1793957;80;21009;-72
2021/06/29 04:54:30;;;;;;;4.70;4.28;;;;;;;29.03;41.08;100327.12;1767052;80;21041;-72
2021/06/29 04:56:56;;;;;;;4.60;4.20;;;;;;;29.00;40.87;100327.16;1792862;80;21768;-72
2021/06/29 04:59:22;;;;;;;5.12;4.65;;;;;;;28.91;40.68;100333.59;1793037;80;21636;-72
2021/06/29 05:01:48;;;;;;;5.45;4.70;;;;;;;28.99;40.67;100337.88;1793313;80;21426;-72
2021/06/29 05:04:14;;;;;;;5.75;5.12;;;;;;;28.93;40.46;100332.19;1794578;80;20958;-72
2021/06/29 05:06:40;;;;;;;8.75;4.53;;;;;;;28.67;40.35;100339.09;1794042;80;21040;-72
2021/06/29 05:09:06;;;;;;;6.97;5.30;;;;;;;28.63;40.37;100347.05;1792982;80;22003;-72
2021/06/29 05:11:32;;;;;;;5.47;4.87;;;;;;;28.68;40.35;100343.45;1792801;80;20981;-72
2021/06/29 05:13:58;;;;;;;6.08;5.58;;;;;;;28.72;40.33;100344.51;1794062;80;20993;-72
2021/06/29 05:16:24;;;;;;;7.67;6.03;;;;;;;28.58;40.24;100336.11;1793272;79;21040;-72
2021/06/29 05:18:51;;;;;;;13.45;5.95;;;;;;;28.55;40.25;100328.47;1794397;80;21049;-72
2021/06/29 05:21:17;;;;;;;14.98;10.85;;;;;;;28.60;40.28;100339.95;1794361;79;21780;-72
2021/06/29 05:23:43;;;;;;;6.87;5.90;;;;;;;28.48;40.30;100338.14;1794284;80;21477;-73
2021/06/29 05:26:09;;;;;;;6.72;6.03;;;;;;;28.49;40.41;100332.37;1793236;79;21414;-73
2021/06/29 05:28:35;;;;;;;8.75;5.95;;;;;;;28.62;40.61;100333.61;1793144;80;21450;-72
2021/06/29 05:31:01;;;;;;;9.13;5.90;;;;;;;28.49;40.55;100330.19;1793578;80;21485;-72
2021/06/29 05:33:27;;;;;;;9.83;6.05;;;;;;;28.60;40.79;100328.98;1792974;80;22554;-72
2021/06/29 05:35:53;;;;;;;8.05;6.08;;;;;;;28.57;40.81;100331.73;1792828;80;20975;-72
2021/06/29 05:38:19;;;;;;;7.17;5.87;;;;;;;28.68;40.90;100333.84;1794200;80;21068;-72
2021/06/29 05:40:45;;;;;;;7.25;5.87;;;;;;;28.80;41.00;100332.89;1794179;80;21044;-72
2021/06/29 05:43:11;;;;;;;8.85;5.67;;;;;;;29.11;41.07;100335.53;1778019;80;21072;-72
2021/06/29 05:45:37;;;;;;;7.62;6.03;;;;;;;29.24;41.04;100337.55;1778183;80;21819;-72
2021/06/29 05:48:03;;;;;;;6.67;5.83;;;;;;;29.21;40.96;100339.52;1794316;79;20948;-72
2021/06/29 05:50:30;;;;;;;8.55;5.80;;;;;;;29.21;40.94;100345.02;1794623;79;21493;-72
2021/06/29 05:52:56;;;;;;;6.10;5.28;;;;;;;29.12;40.85;100334.44;1794546;80;21394;-72
2021/06/29 05:55:22;;;;;;;7.80;6.12;;;;;;;28.98;40.84;100338.18;1792856;80;21053;-72
2021/06/29 05:57:48;;;;;;;6.95;6.33;;;;;;;28.95;40.93;100332.73;1793555;80;21785;-72
2021/06/29 06:00:16;;;;;;;9.45;5.67;;;;;;;29.12;40.86;100341.30;1793324;80;20921;-72
2021/06/29 06:02:43;;;;;;;7.47;6.00;;;;;;;29.00;40.67;100342.27;1779713;80;21474;-72
2021/06/29 06:05:10;;;;;;;7.72;6.80;;;;;;;28.98;40.84;100337.62;1794522;79;21494;-72
2021/06/29 06:07:37;;;;;;;6.62;5.90;;;;;;;29.13;40.76;100337.42;1792748;80;21001;-73
2021/06/29 06:10:05;;;;;;;10.40;5.85;;;;;;;28.85;40.57;100343.83;1792901;80;21907;-72
2021/06/29 06:12:31;;;;;;;11.68;6.85;;;;;;;28.62;40.64;100340.47;1793829;80;21056;-72
2021/06/29 06:14:57;;;;;;;6.35;5.78;;;;;;;28.69;40.62;100340.98;1793054;80;21041;-72
2021/06/29 06:17:26;;;;;;;7.03;5.83;;;;;;;28.60;40.65;100333.09;1793196;80;21005;-73
2021/06/29 06:19:51;;;;;;;7.45;6.70;;;;;;;28.81;40.55;100330.97;1785409;80;21048;-72
2021/06/29 06:22:17;;;;;;;12.82;6.40;;;;;;;28.87;40.62;100324.30;1798252;78;21903;-72
2021/06/29 06:24:43;;;;;;;6.92;6.22;;;;;;;28.75;40.46;100326.08;1794007;80;21032;-72
2021/06/29 06:27:13;;;;;;;7.47;5.83;;;;;;;28.75;40.59;100335.69;1793694;80;21384;-72
2021/06/29 06:29:37;;;;;;;8.83;6.70;;;;;;;28.82;40.61;100327.12;1790340;80;21013;-72
2021/06/29 06:32:04;;;;;;;9.65;7.45;;;;;;;28.83;40.55;100325.99;1791092;79;21312;-72
2021/06/29 06:34:30;;;;;;;9.73;6.53;;;;;;;28.69;40.55;100332.73;1791178;80;21818;-72
2021/06/29 06:36:56;;;;;;;7.58;6.65;;;;;;;28.80;40.58;100332.89;1790385;80;20974;-72
2021/06/29 06:39:22;;;;;;;8.03;6.60;;;;;;;28.80;40.56;100331.52;1786731;80;21098;-72
2021/06/29 06:41:48;;;;;;;7.37;6.08;;;;;;;28.87;40.49;100330.62;1785887;80;20996;-72
2021/06/29 06:44:14;;;;;;;9.43;6.85;;;;;;;29.06;40.42;100327.34;1785964;79;21501;-72
2021/06/29 06:46:40;;;;;;;9.63;6.33;;;;;;;29.26;40.44;100334.56;1785512;80;22452;-72
2021/06/29 06:49:07;;;;;;;9.35;6.35;;;;;;;29.40;40.34;100335.47;1792386;80;21402;-72
2021/06/29 06:51:33;;;;;;;7.60;6.70;;;;;;;29.57;40.32;100330.27;1790816;80;20986;-72
2021/06/29 06:53:59;;;;;;;11.78;7.50;;;;;;;29.46;40.11;100332.08;1791822;80;21462;-72
2021/06/29 06:56:25;;;;;;;10.53;6.75;;;;;;;29.48;40.13;100332.62;1794331;80;20941;-72
2021/06/29 06:58:51;;;;;;;8.15;6.70;;;;;;;29.65;40.10;100333.73;1793655;80;21831;-72
2021/06/29 07:01:17;;;;;;;7.75;7.05;;;;;;;29.54;39.91;100327.30;1794362;78;21092;-72
2021/06/29 07:03:44;;;;;;;7.37;6.67;;;;;;;29.33;39.71;100332.82;1796079;78;20985;-71
2021/06/29 07:06:12;;;;;;;9.10;6.25;;;;;;;29.25;39.62;100329.59;1793011;80;20989;-72
2021/06/29 07:08:38;;;;;;;11.75;7.30;;;;;;;29.20;39.58;100334.34;1792964;80;21053;-71
2021/06/29 07:11:04;;;;;;;7.90;6.90;;;;;;;29.09;39.44;100335.03;1792678;80;21786;-71
2021/06/29 07:13:30;;;;;;;8.73;6.95;;;;;;;29.13;39.39;100334.67;1792933;80;20974;-71
2021/06/29 07:15:56;;;;;;;8.70;7.08;;;;;;;29.20;39.40;100340.62;1790802;80;21048;-71
2021/06/29 07:18:22;;;;;;;8.13;6.05;;;;;;;29.31;39.34;100340.55;1790240;80;21480;-72
2021/06/29 07:20:48;;;;;;;8.23;6.65;;;;;;;29.57;39.23;100341.82;1784857;80;20894;-71
2021/06/29 07:23:14;;;;;;;7.33;6.08;;;;;;;29.72;39.25;100337.48;1793488;80;21795;-71
2021/06/29 07:25:41;;;;;;;11.38;7.20;;;;;;;29.76;39.05;100344.02;1783274;78;21009;-71
2021/06/29 07:28:07;;;;;;;8.28;6.65;;;;;;;29.74;38.99;100343.48;1792822;80;21029;-71
2021/06/29 07:30:35;;;;;;;9.28;7.03;;;;;;;29.95;39.00;100338.52;1793488;79;21043;-71
2021/06/29 07:33:02;;;;;;;7.33;6.60;;;;;;;30.12;38.93;100338.23;1791418;79;21089;-71
2021/06/29 07:35:30;;;;;;;16.35;10.40;;;;;;;30.08;38.75;100334.44;1790344;80;21815;-71
2021/06/29 07:37:57;;;;;;;7.47;6.20;;;;;;;30.12;38.80;100331.34;1802967;78;21686;-71
2021/06/29 07:40:25;;;;;;;7.85;6.35;;;;;;;30.34;38.80;100317.49;1792283;78;21015;-71
2021/06/29 07:42:51;;;;;;;9.15;6.67;;;;;;;30.46;38.61;100315.11;1790242;78;21049;-70
2021/06/29 07:45:17;;;;;;;7.55;6.67;;;;;;;30.45;38.63;100313.47;1785951;80;20993;-70
2021/06/29 07:47:44;;;;;;;12.78;6.55;;;;;;;30.67;38.59;100311.68;1789484;79;21830;-71
2021/06/29 07:50:10;;;;;;;7.50;5.58;;;;;;;30.66;38.32;100317.48;1792475;79;21012;-71
2021/06/29 07:52:37;;;;;;;7.08;6.37;;;;;;;30.54;38.15;100314.42;1776853;79;20936;-71
2021/06/29 07:55:04;;;;;;;15.35;9.75;;;;;;;30.40;37.95;100303.33;1784573;79;21078;-71
2021/06/29 07:57:30;;;;;;;7.37;5.05;;;;;;;30.26;37.75;100303.08;1795326;79;21016;-71
2021/06/29 07:59:56;;;;;;;8.43;5.35;;;;;;;30.32;37.52;100299.11;1796972;78;21862;-70
2021/06/29 08:02:22;;;;;;;9.95;5.28;;;;;;;30.22;37.13;100300.91;1791152;79;21012;-71
2021/06/29 08:04:49;;;;;;;8.78;6.12;;;;;;;30.00;37.02;100314.52;1790030;79;21480;-70
2021/06/29 08:07:15;;;;;;;8.88;5.50;;;;;;;30.15;37.08;100303.23;1787093;79;21040;-70
2021/06/29 08:09:42;;;;;;;8.10;6.15;;;;;;;30.37;37.00;100296.24;1788235;78;21019;-70
2021/06/29 08:12:09;;;;;;;10.75;5.62;;;;;;;30.39;36.98;100295.39;1788004;78;21501;-71
2021/06/29 08:14:36;;;;;;;8.88;5.70;;;;;;;30.19;36.78;100305.64;1792330;78;21008;-70
2021/06/29 08:17:04;;;;;;;7.78;5.50;;;;;;;30.42;36.77;100300.32;1789795;78;21468;-71
2021/06/29 08:19:30;;;;;;;7.75;5.50;;;;;;;30.52;36.65;100298.75;1785431;79;21421;-70
2021/06/29 08:21:57;;;;;;;8.28;5.10;;;;;;;30.69;36.55;100298.96;1789258;79;21051;-71
2021/06/29 08:24:23;;;;;;;9.05;5.35;;;;;;;30.52;36.33;100296.81;1790261;78;21809;-71
2021/06/29 08:26:49;;;;;;;8.45;5.00;;;;;;;30.38;35.86;100302.02;1789226;79;20929;-71
2021/06/29 08:29:15;;;;;;;9.00;5.22;;;;;;;30.10;35.57;100306.64;1787772;78;20980;-71
2021/06/29 08:31:41;;;;;;;8.35;6.15;;;;;;;29.95;35.58;100302.20;1793897;78;20997;-70
2021/06/29 08:34:07;;;;;;;8.98;5.67;;;;;;;29.95;35.40;100309.08;1784615;79;21439;-70
2021/06/29 08:36:41;;;;;;;6.53;5.55;;;;;;;29.63;35.16;100306.26;1790516;78;21912;-72
2021/06/29 08:39:04;;;;;;;10.25;6.28;;;;;;;29.48;35.32;100304.58;1787842;79;20996;-71
2021/06/29 08:41:30;;;;;;;10.50;5.90;;;;;;;29.37;35.22;100300.34;1784818;79;21016;-71
2021/06/29 08:43:56;;;;;;;11.25;6.40;;;;;;;29.18;35.36;100301.66;1794735;78;21471;-71
2021/06/29 08:46:22;;;;;;;8.90;5.80;;;;;;;29.14;35.52;100300.61;1787442;78;20905;-71
2021/06/29 08:48:48;;;;;;;5.55;5.00;;;;;;;29.16;35.53;100292.91;1783329;79;21821;-72
2021/06/29 08:51:14;;;;;;;5.42;4.92;;;;;;;29.41;35.61;100289.58;1764870;79;21040;-72
2021/06/29 08:53:40;;;;;;;7.70;4.65;;;;;;;29.79;35.62;100288.43;1787368;79;21490;-71
2021/06/29 08:56:14;;;;;;;6.75;5.10;;;;;;;29.84;35.40;100285.61;1788078;79;21447;-72
2021/06/29 08:58:34;;;;;;;11.38;5.25;;;;;;;29.97;35.29;100284.86;1766237;79;21041;-72
2021/06/29 09:01:01;;;;;;;10.23;5.97;;;;;;;30.15;35.05;100277.67;1776853;79;21815;-72
2021/06/29 09:03:28;;;;;;;5.45;4.80;;;;;;;29.96;34.59;100283.77;1771642;79;21356;-71
2021/06/29 09:05:54;;;;;;;7.00;4.37;;;;;;;30.02;34.69;100275.13;1766624;80;21071;-71
2021/06/29 09:08:21;;;;;;;10.10;4.20;;;;;;;30.13;34.71;100269.71;1761622;80;21051;-72
2021/06/29 09:11:15;;;;;;;8.13;4.72;;;;;;;30.05;34.56;100273.14;1760841;80;21443;-72
2021/06/29 09:13:43;;;;;;;5.72;4.90;;;;;;;29.81;34.38;100271.05;1761177;80;22648;-72
2021/06/29 09:16:09;;;;;;;6.25;4.50;;;;;;;29.52;34.27;100281.44;1764667;80;21021;-71
2021/06/29 09:18:40;;;;;;;5.10;4.53;;;;;;;29.24;34.33;100269.42;1765098;80;21053;-71
2021/06/29 09:21:07;;;;;;;4.70;4.28;;;;;;;29.07;34.40;100269.94;1800380;78;21468;-72
2021/06/29 09:23:38;;;;;;;9.68;5.10;;;;;;;29.00;34.55;100270.86;1798033;78;21643;-71
2021/06/29 09:26:12;;;;;;;9.00;5.80;;;;;;;29.12;34.69;100267.14;1794553;80;21843;-72
2021/06/29 09:28:49;;;;;;;4.80;4.28;;;;;;;29.24;34.81;100272.99;1794661;80;20946;-72
2021/06/29 09:31:17;;;;;;;7.90;4.22;;;;;;;29.32;34.78;100270.73;1802259;78;21533;-71
2021/06/29 09:33:46;;;;;;;6.08;4.95;;;;;;;29.30;34.82;100270.22;1798091;78;21042;-71
2021/06/29 09:36:15;;;;;;;6.45;4.28;;;;;;;29.45;34.92;100270.00;1824278;78;21081;-70
2021/06/29 09:38:42;;;;;;;10.28;4.22;;;;;;;29.46;34.85;100266.12;1795084;80;21836;-71
2021/06/29 09:41:14;;;;;;;4.92;3.45;;;;;;;29.64;34.98;100268.04;1801853;78;21078;-71
2021/06/29 09:43:43;;;;;;;13.93;7.55;;;;;;;29.97;35.21;100265.61;1784094;79;21049;-72
2021/06/29 09:46:11;;;;;;;4.70;4.30;;;;;;;30.45;35.29;100261.17;1812811;78;21049;-71
2021/06/29 09:48:50;;;;;;;6.63;5.00;;;;;;;30.60;34.85;100259.51;1782504;78;21647;-72
2021/06/29 09:51:26;;;;;;;5.40;4.45;;;;;;;30.63;34.77;100252.83;1769308;81;22473;-71
2021/06/29 09:53:53;;;;;;;11.55;5.00;;;;;;;30.49;34.51;100249.81;1772210;79;21047;-71
2021/06/29 09:56:23;;;;;;;6.15;4.65;;;;;;;30.32;34.51;100249.56;1770770;81;21591;-71
2021/06/29 09:58:56;;;;;;;9.98;4.45;;;;;;;30.16;34.30;100253.97;1771056;81;21645;-71
2021/06/29 10:01:26;;;;;;;6.75;4.92;;;;;;;29.95;34.29;100249.95;1770577;81;20992;-71
2021/06/29 10:03:53;;;;;;;8.70;4.85;;;;;;;30.08;34.42;100248.36;1772138;79;21842;-70
2021/06/29 10:06:21;;;;;;;6.70;4.12;;;;;;;30.35;34.36;100248.95;1768272;79;21063;-70
2021/06/29 10:08:52;;;;;;;6.92;5.03;;;;;;;30.43;34.20;100253.23;1762020;79;21078;-71
2021/06/29 10:11:25;;;;;;;8.55;5.08;;;;;;;30.35;34.05;100251.70;1766156;79;21504;-70
2021/06/29 10:14:02;;;;;;;4.85;3.87;;;;;;;30.31;34.15;100253.43;1766716;79;21011;-70
2021/06/29 10:16:34;;;;;;;7.20;5.53;;;;;;;30.15;34.14;100252.33;1766256;79;21754;-70
2021/06/29 10:19:13;;;;;;;8.70;4.47;;;;;;;30.07;34.25;100253.05;1741168;82;20947;-70
2021/06/29 10:21:31;;;;;;;4.17;3.77;;;;;;;30.05;34.33;100245.64;1741488;80;21016;-70
2021/06/29 10:24:02;;;;;;;10.53;4.42;;;;;;;30.17;34.44;100237.72;1772064;79;20989;-71
2021/06/29 10:26:30;;;;;;;5.45;3.72;;;;;;;30.24;33.79;100232.64;1772212;79;21005;-71
2021/06/29 10:28:56;;;;;;;3.55;3.22;;;;;;;30.24;33.67;100240.08;1778599;79;22004;-71
2021/06/29 10:31:29;;;;;;;5.22;3.67;;;;;;;30.52;33.36;100235.44;1772587;79;21417;-71
2021/06/29 10:33:58;;;;;;;4.95;3.75;;;;;;;30.41;32.35;100238.09;1780533;79;21009;-71
2021/06/29 10:36:26;;;;;;;4.75;3.60;;;;;;;30.54;32.58;100229.08;1775268;79;21036;-70
2021/06/29 10:38:53;;;;;;;6.45;4.08;;;;;;;30.99;32.66;100229.52;1770525;81;21064;-70
2021/06/29 10:41:21;;;;;;;7.08;3.35;;;;;;;31.07;32.17;100230.70;1770386;81;22514;-70
2021/06/29 10:43:47;;;;;;;8.85;3.35;;;;;;;30.85;31.64;100221.81;1790517;79;21486;-71
2021/06/29 10:46:35;;;;;;;4.42;3.87;;;;;;;30.73;31.56;100218.75;1753352;80;21393;-71
2021/06/29 10:49:39;;;;;;;5.17;3.70;;;;;;;31.04;31.59;100225.25;1785002;79;21400;-71
2021/06/29 10:52:26;;;;;;;4.37;3.42;;;;;;;31.14;31.52;100220.06;1792220;78;21070;-71
2021/06/29 10:54:58;;;;;;;4.45;3.40;;;;;;;31.43;31.61;100216.35;1794799;78;21945;-71
2021/06/29 10:57:28;;;;;;;5.20;4.12;;;;;;;31.26;31.43;100219.53;1802507;79;21428;-71
2021/06/29 10:59:55;;;;;;;3.80;3.50;;;;;;;30.84;31.47;100221.55;1791720;79;21221;-70
2021/06/29 11:02:35;;;;;;;4.87;3.90;;;;;;;30.52;31.58;100220.30;1790355;80;21071;-70
2021/06/29 11:05:07;;;;;;;7.17;3.75;;;;;;;30.55;31.85;100216.92;1791698;78;21015;-71
2021/06/29 11:07:38;;;;;;;5.05;3.58;;;;;;;30.63;31.80;100217.59;1791384;78;21819;-71
2021/06/29 11:10:29;;;;;;;3.65;3.35;;;;;;;30.60;31.95;100218.20;1792940;80;20999;-71
2021/06/29 11:12:59;;;;;;;5.65;3.20;;;;;;;30.44;32.00;100218.24;1791469;80;21459;-72
2021/06/29 11:15:46;;;;;;;3.77;3.47;;;;;;;30.29;31.93;100222.11;1807184;79;21494;-72
2021/06/29 11:18:12;;;;;;;3.12;2.83;;;;;;;30.15;31.88;100220.69;1785067;79;21050;-72
2021/06/29 11:20:47;;;;;;;3.17;2.87;;;;;;;30.15;31.96;100211.05;1716159;82;21788;-72
2021/06/29 11:23:29;;;;;;;4.22;3.62;;;;;;;30.29;32.11;100208.91;1793097;78;20998;-72
2021/06/29 11:26:15;;;;;;;6.70;3.30;;;;;;;30.28;32.08;100211.39;1763138;81;20985;-73
2021/06/29 11:28:46;;;;;;;8.35;3.30;;;;;;;30.19;32.19;100207.95;1779941;78;21062;-72
2021/06/29 11:31:29;;;;;;;6.40;3.70;;;;;;;30.31;32.34;100212.16;1789117;80;21462;-72
2021/06/29 11:34:02;;;;;;;3.85;3.42;;;;;;;30.13;32.32;100203.68;1790111;78;21786;-71
2021/06/29 11:36:37;;;;;;;7.12;3.60;;;;;;;30.12;32.47;100199.84;1806382;79;21413;-70
2021/06/29 11:39:22;;;;;;;4.97;3.70;;;;;;;30.14;32.51;100201.20;1796761;78;21078;-71
2021/06/29 11:42:03;;;;;;;7.35;3.70;;;;;;;30.17;32.62;100202.52;1794200;78;20991;-71
2021/06/29 11:44:35;;;;;;;4.00;2.92;;;;;;;30.23;32.46;100197.98;1791322;79;21015;-71
2021/06/29 11:47:07;;;;;;;4.72;2.95;;;;;;;30.29;32.27;100193.21;1791445;80;22492;-71
2021/06/29 11:49:59;;;;;;;3.83;1.85;;;;;;;30.33;31.94;100189.28;1763187;81;21007;-70
2021/06/29 11:52:32;;;;;;;1.87;1.50;;;;;;;30.42;31.61;100187.47;1770602;79;20976;-70
2021/06/29 11:55:19;;;;;;;3.50;1.82;;;;;;;30.46;31.14;100176.11;1764157;81;21521;-70
2021/06/29 11:57:51;;;;;;;2.77;2.52;;;;;;;30.68;30.84;100172.06;1774454;80;21406;-70
2021/06/29 12:00:27;;;;;;;5.75;2.90;;;;;;;30.77;30.27;100170.20;1758677;81;21650;-70